Time;durP1;ratioP1;P1;durP2;ratioP2;P2;SDS_P1;SDS_P2;PMS_P1;PMS_P2;Temp;Humidity;BMP_temperature;BMP_pressure;BME280_temperature;BME280_humidity;BME280_pressure;Samples;Min_cycle;Max_cycle;Signal;HPM_P1;HPM_P2
2022/09/24 00:00:04;;;;;;;6.47;5.67;;;;;;;16.02;59.54;98506.88;7004814;28;20331;-80
2022/09/24 00:03:27;;;;;;;7.57;5.73;;;;;;;16.09;59.80;98514.84;7003291;28;20210;-80
2022/09/24 00:06:48;;;;;;;9.83;5.47;;;;;;;16.28;59.42;98492.59;7003589;28;20424;-79
2022/09/24 00:10:10;;;;;;;8.37;5.23;;;;;;;16.53;58.69;98494.91;7002159;28;20227;-80
2022/09/24 00:13:32;;;;;;;7.23;5.60;;;;;;;16.40;58.69;98487.09;7009393;28;20266;-80
2022/09/24 00:16:55;;;;;;;5.33;4.83;;;;;;;16.41;58.25;98486.03;7021605;28;20279;-81
2022/09/24 00:20:16;;;;;;;6.67;6.03;;;;;;;16.10;59.19;98483.88;7006258;28;20278;-80
2022/09/24 00:23:38;;;;;;;6.97;5.97;;;;;;;15.87;60.27;98478.63;7000617;28;20297;-81
2022/09/24 00:26:59;;;;;;;6.57;5.60;;;;;;;15.80;60.31;98473.31;7001548;28;20336;-81
2022/09/24 00:30:21;;;;;;;6.80;5.40;;;;;;;15.90;60.96;98476.22;7002763;28;20701;-80
2022/09/24 00:33:44;;;;;;;5.93;5.33;;;;;;;16.12;59.81;98428.19;7006103;28;20302;-81
2022/09/24 00:37:05;;;;;;;6.83;5.23;;;;;;;16.35;59.37;98466.03;7009285;28;20287;-80
2022/09/24 00:40:28;;;;;;;6.27;5.67;;;;;;;16.41;58.40;98448.78;7005580;28;20353;-81
2022/09/24 00:43:50;;;;;;;5.40;4.90;;;;;;;16.60;58.33;98471.88;7006273;28;20204;-80
2022/09/24 00:47:14;;;;;;;5.50;5.00;;;;;;;16.28;58.93;98459.16;7005528;28;20363;-81
2022/09/24 00:50:37;;;;;;;5.50;4.90;;;;;;;16.22;59.59;98465.59;7005500;28;20317;-81
2022/09/24 00:54:03;;;;;;;6.00;5.40;;;;;;;16.12;59.78;98465.41;7005996;28;20240;-80
2022/09/24 00:57:25;;;;;;;6.23;5.63;;;;;;;16.04;60.12;98463.13;7005385;28;20701;-80
2022/09/24 01:00:47;;;;;;;6.00;5.40;;;;;;;15.96;60.39;98449.94;7005157;28;20209;-81
2022/09/24 01:04:09;;;;;;;6.80;5.70;;;;;;;16.04;60.00;98444.09;7004964;28;20294;-80
2022/09/24 01:07:32;;;;;;;7.30;5.30;;;;;;;16.24;59.72;98434.34;7005458;28;20259;-80
2022/09/24 01:11:07;;;;;;;6.13;5.50;;;;;;;16.11;59.92;98429.22;7003584;28;20226;-80
2022/09/24 01:14:42;;;;;;;7.30;5.57;;;;;;;16.30;59.15;98414.28;7004933;28;20284;-80
2022/09/24 01:18:09;;;;;;;7.80;5.00;;;;;;;16.30;59.08;98421.63;7004554;28;20626;-80
2022/09/24 01:21:36;;;;;;;6.77;5.33;;;;;;;15.94;58.59;98401.25;7004901;28;20293;-80
2022/09/24 01:25:07;;;;;;;6.40;5.70;;;;;;;16.11;59.56;98422.97;7004515;28;20257;-81
2022/09/24 01:28:37;;;;;;;8.33;6.13;;;;;;;16.15;59.21;98422.22;7004722;28;20245;-81
2022/09/24 01:32:04;;;;;;;6.80;5.80;;;;;;;15.91;59.78;98417.22;7004806;28;20620;-80
2022/09/24 01:35:29;;;;;;;8.40;5.33;;;;;;;15.80;60.05;98410.81;7004553;28;20218;-80
2022/09/24 01:38:52;;;;;;;6.20;5.60;;;;;;;15.82;59.95;98402.41;7004274;28;20321;-80
2022/09/24 01:42:14;;;;;;;8.23;6.13;;;;;;;15.89;60.14;98405.78;7004518;28;20300;-81
2022/09/24 01:45:37;;;;;;;5.97;5.47;;;;;;;15.64;59.81;98359.97;7004550;28;20301;-80
2022/09/24 01:49:00;;;;;;;6.30;5.70;;;;;;;15.35;60.25;98347.56;7004085;28;20234;-80
2022/09/24 01:52:25;;;;;;;7.47;6.67;;;;;;;15.32;61.44;98399.66;7023638;28;20316;-80
2022/09/24 01:55:49;;;;;;;7.50;6.53;;;;;;;15.50;60.38;98371.44;7032163;28;20584;-80
2022/09/24 01:59:14;;;;;;;6.80;6.20;;;;;;;15.62;60.89;98402.91;7031555;28;20590;-80
2022/09/24 02:02:39;;;;;;;7.67;6.87;;;;;;;15.93;59.62;98396.88;7032283;28;20192;-80
2022/09/24 02:06:07;;;;;;;7.73;6.67;;;;;;;15.84;59.51;98394.81;7031844;28;20234;-79
2022/09/24 02:09:30;;;;;;;7.70;6.30;;;;;;;15.76;59.54;98368.06;7029504;28;20263;-81
2022/09/24 02:12:57;;;;;;;8.13;6.67;;;;;;;15.69;59.99;98381.00;7032107;28;20235;-80
2022/09/24 02:16:21;;;;;;;7.17;6.47;;;;;;;15.53;60.19;98376.38;7031864;28;20194;-80
2022/09/24 02:19:43;;;;;;;7.37;6.57;;;;;;;15.72;59.87;98378.59;7031675;28;20205;-80
2022/09/24 02:23:07;;;;;;;7.20;6.60;;;;;;;15.73;59.17;98374.81;7031519;28;20724;-79
2022/09/24 02:26:29;;;;;;;7.23;6.63;;;;;;;15.55;59.62;98395.97;7031444;28;20219;-80
2022/09/24 02:29:50;;;;;;;9.23;7.40;;;;;;;15.59;59.87;98392.53;7031005;28;20225;-81
2022/09/24 02:36:49;;;;;;;9.87;7.97;;;;;;;15.56;59.04;98387.56;7014976;28;20651;-80
2022/09/24 02:40:14;;;;;;;8.33;7.30;;;;;;;15.34;59.83;98369.53;7002888;28;20208;-80
2022/09/24 02:43:35;;;;;;;9.03;7.47;;;;;;;15.06;61.05;98350.53;7002893;28;20206;-80
2022/09/24 02:46:57;;;;;;;7.47;6.77;;;;;;;14.91;61.43;98371.97;7003756;28;20695;-80
2022/09/24 02:50:18;;;;;;;9.07;8.10;;;;;;;15.25;61.31;98366.38;7004537;28;20367;-80
2022/09/24 02:53:40;;;;;;;9.33;8.00;;;;;;;15.56;60.26;98384.84;7031432;28;20266;-79
2022/09/24 02:57:03;;;;;;;7.90;7.20;;;;;;;15.74;59.34;98375.66;7031804;28;20241;-80
2022/09/24 03:00:24;;;;;;;9.30;8.40;;;;;;;15.37;60.67;98378.03;7030968;28;20324;-80
2022/09/24 03:03:47;;;;;;;13.33;8.83;;;;;;;15.55;60.40;98375.06;7031613;28;20203;-79
2022/09/24 03:07:09;;;;;;;9.53;8.53;;;;;;;15.74;60.41;98368.31;7031873;28;20227;-80
2022/09/24 03:10:31;;;;;;;9.03;8.13;;;;;;;15.99;59.33;98389.63;7029663;28;20225;-80
2022/09/24 03:13:54;;;;;;;8.47;7.67;;;;;;;15.72;59.57;98375.06;7031345;28;20251;-80
2022/09/24 03:17:16;;;;;;;9.40;8.03;;;;;;;15.60;60.51;98364.28;7031771;28;20230;-80
2022/09/24 03:20:37;;;;;;;8.17;7.33;;;;;;;15.73;60.17;98369.38;7031611;28;20335;-80
2022/09/24 03:23:59;;;;;;;10.80;8.50;;;;;;;15.57;59.81;98342.22;7031988;28;20279;-80
2022/09/24 03:27:20;;;;;;;9.37;8.47;;;;;;;15.35;61.15;98346.75;7032300;28;20229;-80
2022/09/24 03:31:02;;;;;;;9.27;8.37;;;;;;;15.47;60.64;98358.34;7033590;28;20225;-80
2022/09/24 03:34:23;;;;;;;9.37;8.37;;;;;;;15.58;60.16;98352.81;7041690;28;20201;-80
2022/09/24 03:37:45;;;;;;;9.80;8.17;;;;;;;15.47;61.09;98353.75;7026455;28;20262;-80
2022/09/24 03:41:07;;;;;;;12.27;11.07;;;;;;;15.48;60.82;98351.84;7001269;28;20350;-80
2022/09/24 03:44:29;;;;;;;9.00;7.87;;;;;;;15.87;59.96;98359.00;7001817;28;20332;-80
2022/09/24 03:47:52;;;;;;;8.93;8.00;;;;;;;15.58;59.83;98311.25;7000274;28;20313;-80
2022/09/24 03:51:15;;;;;;;9.73;8.30;;;;;;;15.57;60.55;98344.94;7010520;28;20227;-81
2022/09/24 03:54:36;;;;;;;10.17;9.17;;;;;;;15.68;60.31;98338.59;7029711;28;20296;-80
2022/09/24 03:57:58;;;;;;;8.83;7.73;;;;;;;15.77;59.84;98350.66;7028983;28;20746;-80
2022/09/24 04:01:19;;;;;;;10.70;8.13;;;;;;;15.55;60.57;98333.47;7029711;28;20292;-80
2022/09/24 04:04:42;;;;;;;11.00;8.13;;;;;;;15.70;60.17;98331.00;7029829;28;20211;-80
2022/09/24 04:08:05;;;;;;;9.47;8.57;;;;;;;16.02;59.44;98334.72;7036914;28;20308;-80
2022/09/24 04:11:26;;;;;;;9.93;8.80;;;;;;;15.89;59.77;98344.06;7035859;28;20779;-80
2022/09/24 04:14:48;;;;;;;9.47;8.57;;;;;;;15.72;60.27;98316.09;7034667;28;20233;-79
2022/09/24 04:18:09;;;;;;;9.53;8.63;;;;;;;16.05;59.27;98331.50;7033862;28;20724;-80
2022/09/24 04:21:32;;;;;;;9.40;8.37;;;;;;;16.20;59.34;98342.59;7034747;28;20259;-80
2022/09/24 04:24:54;;;;;;;10.77;8.60;;;;;;;16.21;59.11;98311.63;7034379;28;20207;-79
2022/09/24 04:28:15;;;;;;;10.13;8.87;;;;;;;16.22;59.16;98308.63;7033148;28;20238;-80
2022/09/24 04:31:38;;;;;;;11.03;8.73;;;;;;;16.12;59.64;98319.38;7034094;28;20216;-80
2022/09/24 04:34:59;;;;;;;10.30;9.23;;;;;;;16.28;59.34;98314.97;7034594;28;20206;-80
2022/09/24 04:38:22;;;;;;;10.60;8.63;;;;;;;16.10;59.97;98334.31;7033389;28;20305;-80
2022/09/24 04:41:46;;;;;;;10.00;8.63;;;;;;;16.12;60.52;98321.28;7033564;28;20207;-80
2022/09/24 04:45:10;;;;;;;10.97;9.10;;;;;;;16.46;59.29;98328.28;7034164;28;20209;-81
2022/09/24 04:48:33;;;;;;;10.47;8.00;;;;;;;16.68;58.39;98329.09;7032226;28;20256;-80
2022/09/24 04:51:57;;;;;;;9.03;8.23;;;;;;;16.33;58.99;98329.44;7033264;28;20210;-80
2022/09/24 04:55:20;;;;;;;10.00;9.00;;;;;;;15.64;62.36;98311.06;7033161;28;20209;-80
2022/09/24 04:58:41;;;;;;;13.07;8.87;;;;;;;16.45;59.98;98322.00;7031585;28;20241;-80
2022/09/24 05:02:05;;;;;;;8.90;8.00;;;;;;;16.62;59.04;98302.84;7031099;28;20248;-80
2022/09/24 05:05:27;;;;;;;9.73;7.93;;;;;;;16.65;58.51;98308.63;7033337;28;20560;-79
2022/09/24 05:08:49;;;;;;;10.47;8.67;;;;;;;16.65;58.66;98310.53;7032911;28;20238;-80
2022/09/24 05:12:12;;;;;;;8.83;7.93;;;;;;;16.60;58.83;98300.41;7033422;28;20235;-80
2022/09/24 05:15:33;;;;;;;11.00;8.17;;;;;;;16.59;58.29;98290.63;7033767;28;20666;-80
2022/09/24 05:18:55;;;;;;;9.00;7.90;;;;;;;16.75;58.19;98322.34;7032863;28;20415;-80
2022/09/24 05:22:16;;;;;;;9.00;8.07;;;;;;;16.69;58.35;98317.13;7032923;28;20245;-80
2022/09/24 05:27:07;;;;;;;10.23;7.80;;;;;;;16.85;58.32;98332.50;7047856;28;20243;-80
2022/09/24 05:29:21;;;;;;;8.63;7.83;;;;;;;16.94;57.64;98323.66;7055659;28;20291;-80
2022/09/24 05:32:42;;;;;;;9.17;8.20;;;;;;;16.81;58.46;98331.41;7034042;28;20707;-80
2022/09/24 05:36:04;;;;;;;9.17;8.20;;;;;;;16.85;58.68;98332.50;7032994;28;20299;-80
2022/09/24 05:39:26;;;;;;;7.93;7.23;;;;;;;17.02;58.07;98331.34;7005697;28;20771;-81
2022/09/24 05:42:47;;;;;;;10.27;8.40;;;;;;;17.04;58.06;98331.09;7004752;28;20239;-81
2022/09/24 05:46:17;;;;;;;9.27;8.33;;;;;;;16.78;58.48;98346.34;7003779;28;20280;-81
2022/09/24 05:49:39;;;;;;;10.30;8.57;;;;;;;16.57;59.06;98341.72;7020377;28;20256;-81
2022/09/24 05:53:00;;;;;;;10.80;8.27;;;;;;;16.08;60.14;98311.97;7032552;28;20229;-81
2022/09/24 05:59:58;;;;;;;12.43;8.83;;;;;;;16.58;59.46;98345.28;7088010;27;20554;-81
2022/09/24 06:03:20;;;;;;;9.23;8.30;;;;;;;16.80;59.17;98357.00;7059743;28;20613;-77
2022/09/24 06:06:42;;;;;;;14.47;8.27;;;;;;;16.77;58.90;98336.53;7060788;28;20195;-75
2022/09/24 06:10:06;;;;;;;10.20;9.13;;;;;;;16.67;58.36;98301.03;7060129;28;20204;-77
2022/09/24 06:13:27;;;;;;;10.30;9.00;;;;;;;16.51;58.81;98261.09;7052443;28;20306;-78
2022/09/24 06:16:50;;;;;;;9.37;8.33;;;;;;;17.33;57.93;98346.88;7059595;28;20204;-78
2022/09/24 06:20:12;;;;;;;10.20;9.20;;;;;;;16.64;58.19;98266.13;7056257;28;20208;-77
2022/09/24 06:23:34;;;;;;;9.60;8.60;;;;;;;17.19;57.61;98307.53;7060216;28;20292;-76
2022/09/24 06:26:57;;;;;;;8.73;7.90;;;;;;;17.07;57.06;98257.03;7057898;28;20193;-77
2022/09/24 06:30:18;;;;;;;9.67;8.73;;;;;;;17.24;57.24;98288.53;7059325;28;20200;-76
2022/09/24 06:33:41;;;;;;;10.73;9.00;;;;;;;17.54;56.89;98307.88;7059863;28;20248;-77
2022/09/24 06:37:03;;;;;;;10.03;8.23;;;;;;;17.11;56.83;98244.53;7032053;28;20283;-77
2022/09/24 06:40:25;;;;;;;10.57;8.60;;;;;;;18.04;56.31;98364.66;7036225;28;20210;-78
2022/09/24 06:43:47;;;;;;;10.13;8.27;;;;;;;18.11;54.71;98368.78;7058982;28;20211;-78
2022/09/24 06:47:11;;;;;;;8.53;7.57;;;;;;;17.99;54.12;98359.16;7059089;28;20203;-78
2022/09/24 06:50:35;;;;;;;8.80;7.67;;;;;;;17.94;53.50;98316.31;7059581;28;20689;-78
2022/09/24 06:53:56;;;;;;;11.60;8.50;;;;;;;18.24;54.17;98384.72;7045697;28;20299;-77
2022/09/24 06:57:18;;;;;;;9.90;8.03;;;;;;;18.26;53.20;98336.13;7039173;28;20233;-77
2022/09/24 07:00:40;;;;;;;11.17;8.07;;;;;;;18.06;52.77;98273.28;7053589;28;20207;-77
2022/09/24 07:04:02;;;;;;;8.57;7.67;;;;;;;18.52;53.76;98383.53;7042377;28;20201;-78
2022/09/24 07:07:31;;;;;;;9.07;8.20;;;;;;;18.40;53.55;98364.59;7044395;28;20565;-78
2022/09/24 07:10:53;;;;;;;10.70;8.03;;;;;;;18.43;54.50;98380.47;7032023;28;20212;-77
2022/09/24 07:14:14;;;;;;;9.50;8.07;;;;;;;18.47;54.57;98364.38;7027420;28;20735;-77
2022/09/24 07:17:36;;;;;;;11.97;8.70;;;;;;;18.44;54.11;98322.06;7039896;28;20229;-79
2022/09/24 07:20:58;;;;;;;8.07;7.17;;;;;;;18.23;53.40;98279.34;7038820;28;20208;-79
2022/09/24 07:24:21;;;;;;;8.40;7.50;;;;;;;18.85;53.33;98373.00;7011447;28;20211;-80
2022/09/24 07:27:42;;;;;;;10.67;8.03;;;;;;;18.99;52.70;98373.31;7012114;28;20205;-79
2022/09/24 07:31:04;;;;;;;9.97;7.37;;;;;;;19.13;52.30;98396.31;7037163;28;20317;-78
2022/09/24 07:34:26;;;;;;;8.17;7.37;;;;;;;18.71;52.63;98338.25;7020084;28;20205;-79
2022/09/24 07:37:47;;;;;;;11.83;8.07;;;;;;;19.09;52.78;98397.91;7023456;28;20227;-80
2022/09/24 07:41:10;;;;;;;9.67;7.77;;;;;;;18.61;52.64;98332.75;7027524;28;20613;-79
2022/09/24 07:44:32;;;;;;;7.60;6.87;;;;;;;19.17;52.51;98384.56;7026199;28;20198;-78
2022/09/24 07:47:58;;;;;;;9.43;6.67;;;;;;;19.33;52.50;98396.41;7021198;28;20217;-78
2022/09/24 07:51:20;;;;;;;9.13;7.30;;;;;;;19.52;51.85;98392.84;7022784;28;20667;-78
2022/09/24 07:54:41;;;;;;;8.40;7.50;;;;;;;19.48;52.03;98388.19;7024280;28;20642;-77
2022/09/24 07:58:04;;;;;;;9.43;7.13;;;;;;;19.11;53.15;98398.50;7018848;28;20273;-77
2022/09/24 08:01:26;;;;;;;9.13;7.37;;;;;;;19.21;53.52;98410.28;7026664;28;20202;-77
2022/09/24 08:04:48;;;;;;;8.30;7.50;;;;;;;19.03;52.64;98350.66;7009548;28;20217;-78
2022/09/24 08:08:10;;;;;;;10.20;7.80;;;;;;;19.74;51.60;98409.03;7034810;28;20205;-78
2022/09/24 08:11:32;;;;;;;11.03;7.60;;;;;;;19.60;52.17;98396.97;7037297;28;20201;-78
2022/09/24 08:14:55;;;;;;;8.63;7.50;;;;;;;19.49;52.56;98412.53;7027917;28;20201;-78
2022/09/24 08:18:17;;;;;;;9.87;7.30;;;;;;;19.63;52.56;98413.63;7024710;28;20232;-78
2022/09/24 08:21:38;;;;;;;8.80;7.50;;;;;;;19.45;52.43;98343.06;7008163;28;20207;-78
2022/09/24 08:25:02;;;;;;;8.40;7.37;;;;;;;19.56;50.84;98317.38;7026557;28;20570;-78
2022/09/24 08:28:23;;;;;;;8.17;7.37;;;;;;;19.86;51.21;98390.41;7008672;28;20201;-77
2022/09/24 08:31:46;;;;;;;9.47;6.57;;;;;;;19.65;51.84;98345.00;7019940;28;20255;-78
2022/09/24 08:35:09;;;;;;;7.67;6.87;;;;;;;19.75;51.50;98353.22;7017181;28;20591;-78
2022/09/24 08:38:30;;;;;;;11.20;7.53;;;;;;;20.32;51.65;98417.47;7024776;28;20578;-78
2022/09/24 08:41:55;;;;;;;9.80;7.13;;;;;;;20.13;51.80;98397.25;7008210;28;20210;-78
2022/09/24 08:49:02;;;;;;;8.27;7.00;;;;;;;20.45;50.29;98384.03;7020410;28;20213;-78
2022/09/24 08:52:34;;;;;;;8.83;7.20;;;;;;;20.62;50.19;98391.91;7033977;28;20220;-78
2022/09/24 08:55:58;;;;;;;9.40;6.83;;;;;;;20.61;49.27;98362.88;7007085;28;20660;-78
2022/09/24 08:59:26;;;;;;;7.90;6.60;;;;;;;20.19;50.03;98324.16;7027128;28;20221;-78
2022/09/24 09:02:53;;;;;;;9.17;6.00;;;;;;;21.54;47.11;98412.84;7033742;28;20245;-77
2022/09/24 09:06:38;;;;;;;7.93;6.07;;;;;;;20.73;48.26;98409.97;7033740;28;20204;-77
2022/09/24 09:10:02;;;;;;;8.33;7.20;;;;;;;20.93;48.71;98409.94;7031544;28;20201;-78
2022/09/24 09:13:28;;;;;;;7.10;6.13;;;;;;;20.92;48.59;98400.88;7016792;28;20207;-78
2022/09/24 09:16:52;;;;;;;7.50;6.80;;;;;;;20.64;49.34;98349.44;7031409;28;20696;-77
2022/09/24 09:20:18;;;;;;;6.97;6.23;;;;;;;21.26;48.72;98360.66;7008810;28;20260;-78
2022/09/24 09:23:45;;;;;;;8.60;6.40;;;;;;;20.79;48.74;98346.66;7007034;28;20210;-77
2022/09/24 09:27:13;;;;;;;7.93;6.20;;;;;;;21.11;48.39;98354.47;7007227;28;20289;-78
2022/09/24 09:30:42;;;;;;;10.10;6.17;;;;;;;21.87;47.12;98412.09;7022208;28;20209;-77
2022/09/24 09:34:22;;;;;;;11.87;6.67;;;;;;;22.31;47.17;98429.25;7006372;28;20213;-75
2022/09/24 09:37:48;;;;;;;6.80;6.20;;;;;;;21.97;46.62;98367.25;7005320;28;20246;-78
2022/09/24 09:41:18;;;;;;;7.30;5.83;;;;;;;22.20;46.53;98424.16;7010679;28;20199;-77
2022/09/24 09:44:43;;;;;;;7.43;5.67;;;;;;;21.94;47.39;98423.56;7005448;28;20202;-78
2022/09/24 09:48:05;;;;;;;6.83;6.00;;;;;;;22.10;47.59;98413.25;7005186;28;20201;-78
2022/09/24 09:51:33;;;;;;;5.63;5.13;;;;;;;21.31;47.90;98361.44;7007522;28;20546;-78
2022/09/24 09:54:55;;;;;;;6.00;5.50;;;;;;;21.61;48.61;98407.84;7017253;28;20570;-77
2022/09/24 09:58:22;;;;;;;6.13;4.80;;;;;;;22.42;46.07;98400.59;7017742;28;20230;-78
2022/09/24 10:01:46;;;;;;;5.77;5.20;;;;;;;22.79;45.51;98400.78;7016005;28;20541;-78
2022/09/24 10:05:18;;;;;;;6.60;5.20;;;;;;;23.02;45.48;98408.16;7034085;28;20207;-78
2022/09/24 10:08:40;;;;;;;5.10;4.20;;;;;;;23.18;44.56;98382.13;7019349;28;20285;-78
2022/09/24 10:12:12;;;;;;;4.93;4.50;;;;;;;22.61;44.74;98368.53;7027220;28;20275;-78
2022/09/24 10:15:40;;;;;;;5.37;4.40;;;;;;;23.33;44.76;98395.69;7005991;28;20208;-78
2022/09/24 10:19:01;;;;;;;4.40;4.00;;;;;;;23.13;44.25;98362.91;7007188;28;20214;-78
2022/09/24 10:22:25;;;;;;;3.87;3.47;;;;;;;22.79;45.71;98384.28;7023877;28;20211;-77
2022/09/24 10:25:51;;;;;;;4.73;3.77;;;;;;;22.92;45.94;98400.06;7021594;28;20203;-78
2022/09/24 10:32:57;;;;;;;7.07;5.67;;;;;;;22.78;45.56;98381.81;7017859;28;20204;-77
2022/09/24 10:36:21;;;;;;;3.43;3.13;;;;;;;22.19;47.64;98381.34;7026453;28;20205;-77
2022/09/24 10:39:42;;;;;;;4.87;3.47;;;;;;;22.51;47.25;98385.16;7019574;28;20230;-78
2022/09/24 10:43:05;;;;;;;4.27;3.53;;;;;;;22.92;46.71;98394.56;7019963;28;20209;-78
2022/09/24 10:46:51;;;;;;;3.77;3.10;;;;;;;22.41;47.44;98392.63;7033910;28;20206;-78
2022/09/24 10:50:26;;;;;;;3.73;3.37;;;;;;;22.56;46.33;98400.75;7030353;28;20217;-78
2022/09/24 10:53:53;;;;;;;5.03;3.50;;;;;;;22.28;47.20;98357.63;7009829;28;20205;-77
2022/09/24 10:57:21;;;;;;;4.77;3.93;;;;;;;22.91;46.61;98409.41;7013833;28;20218;-78
2022/09/24 11:00:51;;;;;;;4.63;3.97;;;;;;;22.64;46.21;98339.63;7037658;28;20216;-78
2022/09/24 11:04:21;;;;;;;4.13;3.50;;;;;;;23.03;45.66;98349.31;7033915;28;20522;-78
2022/09/24 11:07:54;;;;;;;4.23;3.60;;;;;;;22.87;45.96;98353.38;7037151;28;20198;-77
2022/09/24 11:11:25;;;;;;;3.70;3.40;;;;;;;22.99;47.30;98377.66;7037134;28;20565;-78
2022/09/24 11:14:55;;;;;;;4.17;3.77;;;;;;;23.13;47.38;98384.91;7035563;28;20212;-78
2022/09/24 11:18:31;;;;;;;4.17;3.77;;;;;;;22.77;48.42;98402.97;7037247;28;20220;-78
2022/09/24 11:22:03;;;;;;;3.97;3.67;;;;;;;22.39;48.59;98324.25;7036966;28;20668;-77
2022/09/24 11:25:35;;;;;;;4.53;3.83;;;;;;;22.70;47.69;98375.03;7030003;28;20205;-78
2022/09/24 11:29:27;;;;;;;4.23;3.83;;;;;;;22.97;49.28;98402.75;7025154;28;20209;-78
2022/09/24 11:33:00;;;;;;;4.57;3.83;;;;;;;23.05;49.29;98382.81;7017730;28;20205;-77
2022/09/24 11:36:37;;;;;;;3.30;3.00;;;;;;;23.19;48.01;98386.50;7037136;28;20213;-79
2022/09/24 11:40:09;;;;;;;3.53;3.23;;;;;;;23.32;48.19;98308.75;7032834;28;20234;-78
2022/09/24 11:43:54;;;;;;;3.50;3.20;;;;;;;24.42;46.41;98374.88;7010547;28;20225;-78
2022/09/24 11:47:26;;;;;;;3.53;3.13;;;;;;;23.92;46.62;98381.28;7027765;28;20197;-78
2022/09/24 11:50:57;;;;;;;3.77;3.33;;;;;;;23.13;47.36;98393.16;7034537;28;20307;-78
2022/09/24 11:54:24;;;;;;;4.03;2.53;;;;;;;22.95;48.50;98377.44;7019246;28;20575;-78
2022/09/24 11:57:49;;;;;;;3.57;2.80;;;;;;;22.52;49.01;98351.06;7013191;28;20216;-78
2022/09/24 12:01:15;;;;;;;2.53;2.33;;;;;;;23.20;48.37;98384.59;7034041;28;20241;-77
2022/09/24 12:04:51;;;;;;;2.43;2.23;;;;;;;22.52;49.31;98347.47;7034465;28;20207;-78
2022/09/24 12:08:17;;;;;;;2.50;2.30;;;;;;;21.99;50.69;98299.16;7008617;28;20295;-78
2022/09/24 12:11:42;;;;;;;2.07;1.90;;;;;;;22.33;49.50;98286.97;7018014;28;20303;-77
2022/09/24 12:15:07;;;;;;;2.63;2.20;;;;;;;22.73;51.03;98370.88;7020947;28;20207;-77
2022/09/24 12:18:35;;;;;;;3.00;2.70;;;;;;;22.77;50.58;98363.69;7006328;28;20222;-79
2022/09/24 12:21:58;;;;;;;5.03;4.63;;;;;;;22.03;51.07;98301.06;7007890;28;20224;-77
2022/09/24 12:25:19;;;;;;;6.10;5.60;;;;;;;22.50;51.79;98371.69;7032579;28;20197;-76
2022/09/24 12:36:19;;;;;;;2.80;2.60;;;;;;;22.34;50.83;98367.44;7003921;28;20230;-77
2022/09/24 12:39:45;;;;;;;2.70;2.50;;;;;;;22.06;52.95;98346.31;6978989;28;20712;-77
2022/09/24 12:43:24;;;;;;;2.57;2.37;;;;;;;21.45;53.89;98337.78;7032766;28;20211;-77
2022/09/24 12:46:51;;;;;;;3.37;2.90;;;;;;;21.18;53.40;98290.78;7017818;28;20203;-78
2022/09/24 12:50:21;;;;;;;2.63;2.43;;;;;;;21.35;53.89;98296.69;7034294;28;20228;-78
2022/09/24 12:53:55;;;;;;;3.07;2.87;;;;;;;21.50;53.31;98282.88;7019102;28;20660;-78
2022/09/24 12:57:19;;;;;;;7.63;4.93;;;;;;;21.89;53.63;98356.91;7007850;28;20231;-77
2022/09/24 13:00:42;;;;;;;133.67;55.87;;;;;;;22.06;53.12;98352.63;7029001;28;20217;-80
2022/09/24 13:04:25;;;;;;;3.50;3.20;;;;;;;21.60;53.83;98353.28;7029223;28;20205;-78
2022/09/24 13:07:57;;;;;;;4.17;3.77;;;;;;;21.38;54.27;98315.34;7006576;28;20215;-77
2022/09/24 13:11:29;;;;;;;3.93;3.30;;;;;;;21.21;55.26;98278.44;7005531;28;20219;-78
2022/09/24 13:14:56;;;;;;;3.60;3.30;;;;;;;21.01;55.22;98278.59;7008977;28;20299;-77
2022/09/24 13:18:23;;;;;;;3.67;3.37;;;;;;;21.59;55.20;98341.50;7030702;28;20633;-79
2022/09/24 13:21:53;;;;;;;4.30;3.90;;;;;;;21.36;56.09;98278.34;7020848;28;20528;-78
2022/09/24 13:25:27;;;;;;;4.63;4.13;;;;;;;21.59;56.03;98302.28;7005459;28;20227;-77
2022/09/24 13:28:57;;;;;;;4.53;4.13;;;;;;;21.79;55.70;98324.06;7019258;28;20193;-79
2022/09/24 13:32:19;;;;;;;4.83;3.80;;;;;;;21.82;55.75;98337.19;7021140;28;20195;-78
2022/09/24 13:35:44;;;;;;;4.00;3.60;;;;;;;21.29;55.96;98333.50;7022259;28;20639;-78
2022/09/24 13:39:13;;;;;;;4.50;3.80;;;;;;;21.23;55.51;98262.50;7005756;28;20212;-78
2022/09/24 13:42:38;;;;;;;4.27;3.87;;;;;;;21.84;56.54;98344.03;7004517;28;20198;-79
2022/09/24 13:46:01;;;;;;;4.20;3.83;;;;;;;21.89;55.64;98308.31;7005367;28;20202;-78
2022/09/24 13:49:23;;;;;;;4.27;3.87;;;;;;;22.07;54.95;98332.28;7019014;28;20225;-77
2022/09/24 13:52:48;;;;;;;5.17;4.37;;;;;;;22.15;54.96;98336.34;7031284;28;20206;-78
2022/09/24 13:56:12;;;;;;;5.47;4.10;;;;;;;21.97;54.27;98277.50;7005329;28;20513;-78
2022/09/24 13:59:34;;;;;;;4.93;4.43;;;;;;;22.20;55.56;98348.06;7005494;28;20745;-78
2022/09/24 14:03:01;;;;;;;4.67;4.20;;;;;;;21.55;54.95;98285.53;7027868;28;20208;-78
2022/09/24 14:06:38;;;;;;;5.63;4.47;;;;;;;21.63;56.05;98289.59;7031961;28;20211;-78
2022/09/24 14:10:06;;;;;;;5.90;5.33;;;;;;;21.90;56.19;98295.41;7031999;28;20208;-78
2022/09/24 14:13:28;;;;;;;4.93;4.47;;;;;;;22.46;54.85;98327.50;7023152;28;20211;-78
2022/09/24 14:16:53;;;;;;;5.37;4.10;;;;;;;22.84;54.50;98334.69;7007444;28;20283;-79
2022/09/24 14:20:17;;;;;;;5.23;4.47;;;;;;;22.78;55.02;98324.88;7025630;28;20361;-79
2022/09/24 14:23:41;;;;;;;6.17;4.93;;;;;;;22.69;54.54;98321.16;7022281;28;20211;-79
2022/09/24 14:27:05;;;;;;;5.73;4.80;;;;;;;22.56;54.14;98310.91;7013543;28;20199;-79
2022/09/24 14:30:28;;;;;;;6.00;4.33;;;;;;;22.37;53.46;98244.06;7012639;28;20203;-77
2022/09/24 14:33:50;;;;;;;6.10;4.13;;;;;;;22.76;52.83;98315.28;7013632;28;20205;-79
2022/09/24 14:37:17;;;;;;;4.03;3.73;;;;;;;22.82;52.96;98305.88;7022105;28;20204;-78
2022/09/24 14:40:41;;;;;;;4.30;3.90;;;;;;;22.84;52.70;98287.97;7028034;28;20277;-79
2022/09/24 14:44:06;;;;;;;4.90;4.40;;;;;;;21.97;54.44;98269.28;7029235;28;20210;-78
2022/09/24 14:47:31;;;;;;;10.00;6.47;;;;;;;22.53;54.20;98318.91;7013684;28;20191;-79
2022/09/24 14:50:53;;;;;;;4.43;4.03;;;;;;;22.88;52.78;98300.00;7022186;28;20228;-77
2022/09/24 14:54:28;;;;;;;5.83;4.10;;;;;;;22.48;53.48;98277.75;7021297;28;20208;-79
2022/09/24 14:57:50;;;;;;;4.10;3.80;;;;;;;22.79;52.06;98312.81;7012396;28;20218;-79
2022/09/24 15:01:14;;;;;;;4.53;4.13;;;;;;;21.64;53.76;98270.13;7018702;28;20223;-78
2022/09/24 15:04:36;;;;;;;4.20;3.80;;;;;;;21.68;55.02;98317.03;7039453;28;20198;-78
2022/09/24 15:08:17;;;;;;;5.10;3.93;;;;;;;21.61;55.49;98289.88;7030327;28;20268;-79
2022/09/24 15:11:41;;;;;;;4.23;3.93;;;;;;;21.80;55.47;98310.06;7012296;28;20298;-79
2022/09/24 15:15:05;;;;;;;4.87;4.40;;;;;;;21.39;55.63;98275.00;7013882;28;20205;-79
2022/09/24 15:18:27;;;;;;;4.67;4.27;;;;;;;20.90;55.06;98185.75;7025242;28;20206;-79
2022/09/24 15:21:51;;;;;;;4.77;4.37;;;;;;;21.75;55.23;98312.84;7039069;28;20225;-78
2022/09/24 15:25:14;;;;;;;5.77;4.47;;;;;;;21.48;55.39;98298.78;7034925;28;20204;-78
2022/09/24 15:28:37;;;;;;;4.73;3.83;;;;;;;22.00;53.50;98309.84;7010300;28;20289;-78
2022/09/24 15:31:59;;;;;;;7.53;4.57;;;;;;;22.02;55.10;98306.81;7012722;28;20195;-78
2022/09/24 15:35:21;;;;;;;5.00;4.27;;;;;;;22.25;53.82;98289.53;7011503;28;20216;-78
2022/09/24 15:38:42;;;;;;;4.40;4.00;;;;;;;22.16;54.31;98283.88;7011313;28;20237;-79
2022/09/24 15:42:04;;;;;;;5.57;4.20;;;;;;;21.70;54.40;98232.47;7023842;28;20221;-79
2022/09/24 15:45:27;;;;;;;4.37;3.77;;;;;;;21.50;55.00;98210.72;7035037;28;20198;-77
2022/09/24 15:48:49;;;;;;;5.87;4.13;;;;;;;21.83;54.91;98293.00;7027268;28;20315;-78
2022/09/24 15:52:14;;;;;;;4.53;4.07;;;;;;;21.18;54.60;98218.72;7038184;28;20206;-79
2022/09/24 15:55:36;;;;;;;4.03;3.73;;;;;;;21.54;54.80;98222.75;7029036;28;20192;-78
2022/09/24 15:58:58;;;;;;;4.23;3.83;;;;;;;21.49;54.88;98182.44;7011085;28;20210;-79
2022/09/24 16:02:22;;;;;;;4.40;4.00;;;;;;;21.78;55.54;98240.91;7011201;28;20216;-79
2022/09/24 16:05:44;;;;;;;4.73;4.33;;;;;;;22.17;55.83;98296.50;7017765;28;20222;-80
2022/09/24 16:09:05;;;;;;;4.83;4.43;;;;;;;21.71;56.43;98265.13;7036416;28;20212;-79
2022/09/24 16:12:27;;;;;;;4.23;3.83;;;;;;;21.88;56.20;98249.03;7037539;28;20208;-78
2022/09/24 16:15:49;;;;;;;5.37;4.47;;;;;;;22.18;56.00;98297.31;7010777;28;20199;-78
2022/09/24 16:19:13;;;;;;;5.00;4.20;;;;;;;21.86;57.19;98295.19;7020933;28;20669;-78
2022/09/24 16:22:35;;;;;;;5.43;4.43;;;;;;;21.57;57.09;98255.09;7011648;28;20649;-78